Time;durP1;ratioP1;P1;durP2;ratioP2;P2;SDS_P1;SDS_P2;PMS_P1;PMS_P2;Temp;Humidity;BMP_temperature;BMP_pressure;BME280_temperature;BME280_humidity;BME280_pressure;Samples;Min_cycle;Max_cycle;Signal;HPM_P1;HPM_P2
2021/03/25 00:01:29;;;;;;;49.07;36.57;;;8.90;99.90;;;;;;4946047;28;20647;-62
2021/03/25 00:03:57;;;;;;;51.17;35.67;;;8.90;99.90;;;;;;4932246;28;20617;-62
2021/03/25 00:06:24;;;;;;;53.40;39.40;;;8.80;99.90;;;;;;4954447;28;20771;-63
2021/03/25 00:08:53;;;;;;;52.10;37.87;;;8.80;99.90;;;;;;4942544;28;20685;-62
2021/03/25 00:11:24;;;;;;;55.10;38.67;;;8.80;99.90;;;;;;4939150;28;22699;-62
2021/03/25 00:13:54;;;;;;;54.13;38.03;;;8.70;99.90;;;;;;4942113;28;21107;-63
2021/03/25 00:16:22;;;;;;;50.97;36.43;;;8.70;99.90;;;;;;4934240;28;20629;-62
2021/03/25 00:18:48;;;;;;;51.33;35.87;;;8.60;99.90;;;;;;4937692;28;20656;-65
2021/03/25 00:21:16;;;;;;;51.00;36.13;;;8.60;99.90;;;;;;4935576;28;20674;-63
2021/03/25 00:23:46;;;;;;;55.43;38.43;;;8.60;99.90;;;;;;4919075;28;20300;-62
2021/03/25 00:26:34;;;;;;;51.77;37.10;;;8.50;99.90;;;;;;4933055;28;21181;-63
2021/03/25 00:29:15;;;;;;;;;;;;;;;;;;;;;
2021/03/25 00:32:04;;;;;;;58.37;38.27;;;8.40;99.90;;;;;;4942851;28;20653;-62
2021/03/25 00:34:38;;;;;;;54.07;35.80;;;8.40;99.90;;;;;;4935817;28;20624;-62
2021/03/25 00:37:13;;;;;;;53.07;36.57;;;8.30;99.90;;;;;;4935340;28;20652;-62
2021/03/25 00:39:43;;;;;;;52.87;36.87;;;8.30;99.90;;;;;;4935066;28;22580;-62
2021/03/25 00:42:13;;;;;;;51.07;36.77;;;8.20;99.90;;;;;;4941400;28;21153;-63
2021/03/25 00:44:42;;;;;;;52.60;37.60;;;8.20;99.90;;;;;;4935243;28;20620;-62
2021/03/25 00:47:25;;;;;;;56.00;36.50;;;8.10;99.90;;;;;;4937511;28;20625;-63
2021/03/25 00:49:56;;;;;;;56.43;36.87;;;8.10;99.90;;;;;;4916256;28;20696;-63
2021/03/25 00:52:29;;;;;;;50.40;37.20;;;8.00;99.90;;;;;;4940237;28;20999;-63
2021/03/25 00:55:15;;;;;;;51.30;35.53;;;8.00;99.90;;;;;;4952711;28;21198;-62
2021/03/25 00:57:50;;;;;;;58.53;38.60;;;7.90;99.90;;;;;;4942757;28;20755;-65
2021/03/25 01:00:32;;;;;;;;;;;;;;;;;;;;;
2021/03/25 01:03:01;;;;;;;52.57;36.67;;;7.80;99.90;;;;;;4941002;28;22814;-63
2021/03/25 01:05:29;;;;;;;52.83;35.70;;;7.80;99.90;;;;;;4933640;28;21336;-62
2021/03/25 01:08:02;;;;;;;49.47;34.70;;;7.80;99.90;;;;;;4935023;28;21039;-62
2021/03/25 01:10:36;;;;;;;54.17;36.57;;;7.80;99.90;;;;;;4924558;28;20635;-63
2021/03/25 01:13:27;;;;;;;52.37;35.30;;;7.70;99.90;;;;;;4942554;28;20847;-62
2021/03/25 01:16:06;;;;;;;61.40;36.67;;;7.70;99.90;;;;;;4940902;28;23789;-63
2021/03/25 01:18:37;;;;;;;50.37;34.17;;;7.60;99.90;;;;;;4941250;28;20711;-62
2021/03/25 01:21:18;;;;;;;51.80;36.70;;;7.60;99.90;;;;;;4944902;28;20792;-63
2021/03/25 01:23:49;;;;;;;55.53;36.20;;;7.60;99.90;;;;;;4942780;28;20597;-61
2021/03/25 01:26:18;;;;;;;54.40;35.50;;;7.60;99.90;;;;;;4938174;28;20621;-63
2021/03/25 01:28:51;;;;;;;52.43;35.63;;;7.60;99.90;;;;;;4933225;28;20668;-62
2021/03/25 01:31:21;;;;;;;55.47;34.90;;;7.60;99.90;;;;;;4930883;28;21387;-62
2021/03/25 01:34:01;;;;;;;52.77;34.37;;;7.50;99.90;;;;;;4931519;28;20683;-62
2021/03/25 01:36:36;;;;;;;51.37;35.93;;;7.50;99.90;;;;;;4933647;28;20669;-62
2021/03/25 01:39:05;;;;;;;53.87;34.90;;;7.40;99.90;;;;;;4934977;28;20648;-62
2021/03/25 01:41:36;;;;;;;52.77;35.87;;;7.40;99.90;;;;;;4937459;28;20715;-65
2021/03/25 01:44:03;;;;;;;46.90;33.97;;;7.40;99.90;;;;;;4942535;28;23342;-62
2021/03/25 01:46:47;;;;;;;52.10;35.27;;;7.40;99.90;;;;;;4943954;28;21377;-63
2021/03/25 01:49:19;;;;;;;51.50;35.13;;;7.30;99.90;;;;;;4941407;28;20641;-61
2021/03/25 01:52:19;;;;;;;50.20;34.23;;;7.30;99.90;;;;;;4941960;28;20664;-62
2021/03/25 01:55:19;;;;;;;51.37;34.57;;;7.20;99.90;;;;;;4949314;28;20604;-62
2021/03/25 01:58:18;;;;;;;50.47;34.23;;;7.20;99.90;;;;;;4951857;28;20706;-62
2021/03/25 02:01:15;;;;;;;49.47;33.33;;;7.20;99.90;;;;;;4940435;28;21138;-62
2021/03/25 02:04:19;;;;;;;51.60;33.70;;;7.20;99.90;;;;;;4906991;28;20673;-63
2021/03/25 02:07:07;;;;;;;47.70;33.73;;;7.20;99.90;;;;;;4947393;28;20620;-62
2021/03/25 02:09:35;;;;;;;54.13;34.97;;;7.20;99.90;;;;;;4918031;28;20648;-62
2021/03/25 02:12:57;;;;;;;50.17;35.03;;;7.30;99.90;;;;;;4935358;28;21542;-64
2021/03/25 02:15:48;;;;;;;54.40;35.27;;;7.30;99.90;;;;;;4908222;28;20676;-64
2021/03/25 02:18:52;;;;;;;55.50;35.67;;;7.30;99.90;;;;;;4940885;28;20612;-64
2021/03/25 02:21:29;;;;;;;60.27;37.60;;;7.40;99.90;;;;;;4922353;28;21091;-62
2021/03/25 02:24:12;;;;;;;54.43;34.63;;;7.50;99.90;;;;;;4947986;28;21168;-62
2021/03/25 02:26:59;;;;;;;59.37;36.67;;;7.60;99.90;;;;;;4953809;28;20601;-63
2021/03/25 02:29:34;;;;;;;54.43;35.63;;;7.70;99.90;;;;;;4944656;28;20707;-62
2021/03/25 02:32:14;;;;;;;54.93;38.23;;;7.80;99.90;;;;;;4916426;28;21087;-63
2021/03/25 02:34:58;;;;;;;62.67;37.73;;;7.80;99.90;;;;;;4938420;28;20997;-63
2021/03/25 02:37:34;;;;;;;55.63;36.40;;;7.90;99.90;;;;;;4936705;28;21148;-66
2021/03/25 02:40:15;;;;;;;59.30;38.13;;;8.00;99.90;;;;;;4937011;28;20644;-63
2021/03/25 02:43:07;;;;;;;56.10;37.33;;;8.00;99.90;;;;;;4939029;28;20722;-64
2021/03/25 02:45:39;;;;;;;56.17;36.90;;;8.00;99.90;;;;;;4938620;28;21156;-63
2021/03/25 02:48:13;;;;;;;56.63;37.90;;;8.10;99.90;;;;;;4935539;28;21393;-62
2021/03/25 02:51:02;;;;;;;57.97;36.27;;;8.10;99.90;;;;;;4936250;28;20681;-62
2021/03/25 02:56:35;;;;;;;52.70;37.40;;;8.10;99.90;;;;;;4937672;28;20675;-62
2021/03/25 02:59:25;;;;;;;52.50;36.37;;;8.20;99.90;;;;;;4922788;28;21687;-62
2021/03/25 03:02:14;;;;;;;52.63;35.60;;;8.20;99.90;;;;;;4941874;28;20637;-62
2021/03/25 03:04:45;;;;;;;48.40;34.83;;;8.30;99.90;;;;;;4943919;28;20671;-63
2021/03/25 03:07:40;;;;;;;54.17;38.47;;;8.30;99.90;;;;;;4935691;28;20913;-63
2021/03/25 03:10:15;;;;;;;56.03;37.37;;;8.40;99.90;;;;;;4936912;28;21273;-61
2021/03/25 03:12:45;;;;;;;54.70;36.17;;;8.40;99.90;;;;;;4937232;28;20671;-62
2021/03/25 03:15:28;;;;;;;51.93;35.87;;;8.50;99.90;;;;;;4935514;28;20617;-62
2021/03/25 03:18:31;;;;;;;53.80;35.33;;;8.50;99.90;;;;;;4938887;28;20751;-62
2021/03/25 03:21:08;;;;;;;50.17;34.43;;;8.50;99.90;;;;;;4944516;28;20605;-62
2021/03/25 03:23:46;;;;;;;53.53;36.17;;;8.60;99.90;;;;;;4946453;28;20619;-63
2021/03/25 03:26:41;;;;;;;53.67;35.80;;;8.60;99.90;;;;;;4939188;28;20730;-63
2021/03/25 03:29:08;;;;;;;46.40;33.40;;;8.60;99.90;;;;;;4940598;28;20798;-64
2021/03/25 03:31:43;;;;;;;53.37;36.13;;;8.50;99.90;;;;;;4943772;28;22865;-64
2021/03/25 03:34:20;;;;;;;49.73;31.87;;;8.50;99.90;;;;;;4928453;28;20723;-63
2021/03/25 03:36:53;;;;;;;47.40;32.40;;;8.60;99.90;;;;;;4934335;28;20685;-64
2021/03/25 03:39:27;;;;;;;52.23;34.07;;;8.60;99.90;;;;;;4918271;28;20661;-64
2021/03/25 03:42:25;;;;;;;50.83;35.00;;;8.60;99.90;;;;;;4944037;28;20655;-64
2021/03/25 03:47:51;;;;;;;50.83;33.60;;;8.60;99.90;;;;;;4939473;28;20936;-65
2021/03/25 03:50:23;;;;;;;44.80;32.03;;;8.60;99.90;;;;;;4936782;28;20653;-63
2021/03/25 03:53:01;;;;;;;47.40;32.70;;;8.70;99.90;;;;;;4933351;28;20644;-65
2021/03/25 03:55:29;;;;;;;52.70;33.13;;;8.70;99.90;;;;;;4935752;28;21284;-64
2021/03/25 03:58:18;;;;;;;45.50;31.73;;;8.60;99.90;;;;;;4922780;28;20901;-64
2021/03/25 04:01:01;;;;;;;55.43;37.10;;;8.60;99.90;;;;;;4938384;28;20655;-64
2021/03/25 04:03:54;;;;;;;51.23;33.87;;;8.70;99.90;;;;;;4941013;28;20743;-63
2021/03/25 04:06:30;;;;;;;56.47;35.20;;;8.70;99.90;;;;;;4935454;28;20807;-62
2021/03/25 04:09:23;;;;;;;57.70;36.43;;;8.70;99.90;;;;;;4920774;28;20735;-62
2021/03/25 04:12:03;;;;;;;55.30;38.03;;;8.70;99.90;;;;;;4948844;28;20667;-62
2021/03/25 04:14:38;;;;;;;57.43;37.97;;;8.70;99.90;;;;;;4939986;28;21967;-63
2021/03/25 04:17:09;;;;;;;55.40;38.40;;;8.70;99.90;;;;;;4944521;28;21242;-63
2021/03/25 04:19:46;;;;;;;54.67;38.17;;;8.70;99.90;;;;;;4953751;28;20663;-62
2021/03/25 04:22:24;;;;;;;58.30;39.80;;;8.70;99.90;;;;;;4927476;28;21245;-62
2021/03/25 04:25:15;;;;;;;54.43;37.57;;;8.70;99.90;;;;;;4940472;28;20629;-63
2021/03/25 04:27:50;;;;;;;54.07;37.20;;;8.70;99.90;;;;;;4932702;28;20766;-62
2021/03/25 04:30:39;;;;;;;58.13;39.10;;;8.90;99.90;;;;;;4931396;28;20742;-62
2021/03/25 04:33:18;;;;;;;60.43;38.87;;;8.80;99.90;;;;;;4933666;28;20661;-63
2021/03/25 04:35:58;;;;;;;54.93;36.77;;;8.80;99.90;;;;;;4938275;28;20704;-62
2021/03/25 04:38:29;;;;;;;55.10;37.37;;;8.70;99.90;;;;;;4940644;28;21339;-62
2021/03/25 04:41:03;;;;;;;56.13;37.17;;;8.80;99.90;;;;;;4934558;28;20656;-62
2021/03/25 04:43:31;;;;;;;56.97;37.67;;;8.80;99.90;;;;;;4942974;28;21010;-67
2021/03/25 04:46:05;;;;;;;50.90;36.27;;;8.90;99.90;;;;;;4917828;28;20621;-62
2021/03/25 04:48:43;;;;;;;53.87;39.00;;;9.00;99.90;;;;;;4940128;28;21171;-62
2021/03/25 04:51:27;;;;;;;53.67;36.63;;;9.10;99.90;;;;;;4933664;28;20640;-62
2021/03/25 04:54:20;;;;;;;57.67;37.27;;;9.00;99.90;;;;;;4942645;28;20648;-63
2021/03/25 04:56:46;;;;;;;56.87;37.90;;;9.00;99.90;;;;;;4947160;28;20679;-62
2021/03/25 04:59:16;;;;;;;48.83;35.43;;;9.00;99.90;;;;;;4931051;28;20657;-63
2021/03/25 05:01:47;;;;;;;54.77;36.03;;;8.80;99.90;;;;;;4939869;28;20249;-62
2021/03/25 05:04:18;;;;;;;57.97;37.70;;;8.80;99.90;;;;;;4934715;28;20588;-62
2021/03/25 05:07:04;;;;;;;57.90;37.73;;;8.80;99.90;;;;;;4933570;28;20625;-62
2021/03/25 05:09:29;;;;;;;53.67;35.07;;;8.80;99.90;;;;;;4935181;28;20652;-63
2021/03/25 05:12:02;;;;;;;54.33;34.93;;;8.80;99.90;;;;;;4933951;28;21896;-62
2021/03/25 05:14:35;;;;;;;51.23;35.80;;;8.90;99.90;;;;;;4936416;28;20238;-62
2021/03/25 05:17:28;;;;;;;58.37;36.43;;;8.90;99.90;;;;;;4921476;28;20637;-62
2021/03/25 05:20:25;;;;;;;50.80;34.60;;;8.90;99.90;;;;;;4939948;28;21325;-61
2021/03/25 05:23:17;;;;;;;56.60;34.60;;;9.00;99.90;;;;;;4905829;28;21472;-63
2021/03/25 05:26:08;;;;;;;49.00;33.03;;;9.00;99.90;;;;;;4926651;28;20791;-62
2021/03/25 05:28:53;;;;;;;46.60;31.07;;;8.90;99.90;;;;;;4940527;28;21043;-63
2021/03/25 05:31:24;;;;;;;46.13;31.23;;;9.00;99.90;;;;;;4937353;28;21550;-63
2021/03/25 05:34:05;;;;;;;;;;;;;;;;;;;;;
2021/03/25 05:36:33;;;;;;;48.90;32.10;;;8.90;99.90;;;;;;4944776;28;20605;-62
2021/03/25 05:39:20;;;;;;;52.80;32.43;;;8.90;99.90;;;;;;4952953;28;20809;-62
2021/03/25 05:42:11;;;;;;;46.53;30.47;;;9.10;99.90;;;;;;4939687;28;20734;-62
2021/03/25 05:45:01;;;;;;;47.03;30.17;;;9.10;99.90;;;;;;4940704;28;20628;-63
2021/03/25 05:47:51;;;;;;;45.00;30.30;;;9.10;99.90;;;;;;4945353;28;20660;-62
2021/03/25 05:50:38;;;;;;;45.03;30.30;;;9.10;99.90;;;;;;4937750;28;20660;-62
2021/03/25 05:53:31;;;;;;;46.70;30.30;;;9.10;99.90;;;;;;4943815;28;21030;-61
2021/03/25 05:56:29;;;;;;;49.47;32.10;;;9.00;99.90;;;;;;4945051;28;20590;-64
2021/03/25 05:59:17;;;;;;;48.80;31.33;;;9.10;99.90;;;;;;4953029;28;20707;-62
2021/03/25 06:02:04;;;;;;;47.20;31.70;;;9.10;99.90;;;;;;4922156;28;21305;-63
2021/03/25 06:04:37;;;;;;;42.10;30.10;;;9.10;99.90;;;;;;4944031;28;20814;-62
2021/03/25 06:07:47;;;;;;;46.90;30.87;;;9.10;99.90;;;;;;4934002;28;21374;-62
2021/03/25 06:10:25;;;;;;;47.13;29.77;;;9.00;99.90;;;;;;4927615;28;21193;-62
2021/03/25 06:12:59;;;;;;;47.43;30.97;;;9.10;99.90;;;;;;4925367;28;20690;-61
2021/03/25 06:15:58;;;;;;;46.93;30.37;;;9.10;99.90;;;;;;4919007;28;21559;-62
2021/03/25 06:18:40;;;;;;;49.80;31.67;;;9.20;99.90;;;;;;4933608;28;20704;-62
2021/03/25 06:21:19;;;;;;;45.60;30.40;;;9.20;99.90;;;;;;4940923;28;20608;-62
2021/03/25 06:24:02;;;;;;;45.67;30.80;;;9.20;99.90;;;;;;4920392;28;20625;-61
2021/03/25 06:26:55;;;;;;;50.80;31.70;;;9.20;99.90;;;;;;4928029;28;20719;-62
2021/03/25 06:29:34;;;;;;;46.83;28.63;;;9.20;99.90;;;;;;4955013;28;21246;-63
2021/03/25 06:32:10;;;;;;;42.47;29.63;;;9.30;99.90;;;;;;4943941;28;21145;-62
2021/03/25 06:34:41;;;;;;;48.70;29.80;;;9.30;99.90;;;;;;4950381;28;20628;-63
2021/03/25 06:37:29;;;;;;;41.00;26.07;;;9.20;99.90;;;;;;4940691;28;20643;-62
2021/03/25 06:40:06;;;;;;;39.10;24.50;;;9.30;99.90;;;;;;4940041;28;21339;-65
2021/03/25 06:42:39;;;;;;;38.30;24.00;;;9.20;99.90;;;;;;4942119;28;20688;-64
2021/03/25 06:45:20;;;;;;;38.00;23.83;;;9.20;99.90;;;;;;4918188;28;20775;-65
2021/03/25 06:47:57;;;;;;;39.87;24.03;;;9.40;99.90;;;;;;4928943;28;20725;-65
2021/03/25 06:50:47;;;;;;;37.23;25.53;;;9.40;99.90;;;;;;4947295;28;20644;-63
2021/03/25 06:53:28;;;;;;;42.20;26.70;;;9.40;99.90;;;;;;4932679;28;23481;-63
2021/03/25 06:56:00;;;;;;;39.67;25.90;;;9.30;99.90;;;;;;4949235;28;20608;-63
2021/03/25 06:58:51;;;;;;;37.00;24.97;;;9.30;99.90;;;;;;4955291;28;20671;-62
2021/03/25 07:01:27;;;;;;;42.83;25.93;;;9.20;99.90;;;;;;4937539;28;20629;-69
2021/03/25 07:03:57;;;;;;;42.57;27.20;;;9.30;99.90;;;;;;4923576;28;20617;-62
2021/03/25 07:06:26;;;;;;;42.03;27.03;;;9.30;99.90;;;;;;4925708;28;20601;-64
2021/03/25 07:08:55;;;;;;;43.30;27.60;;;9.30;99.90;;;;;;4918598;28;20683;-62
2021/03/25 07:11:25;;;;;;;40.33;26.50;;;9.20;99.90;;;;;;4912197;28;23748;-63
2021/03/25 07:13:59;;;;;;;41.10;26.53;;;9.20;99.90;;;;;;4921729;28;20637;-62
2021/03/25 07:16:27;;;;;;;37.93;25.10;;;9.20;99.90;;;;;;4923254;28;20907;-62
2021/03/25 07:19:08;;;;;;;42.50;25.90;;;9.20;99.90;;;;;;4913801;28;21504;-64
2021/03/25 07:22:13;;;;;;;40.23;24.50;;;9.30;99.90;;;;;;4919765;28;20649;-63
2021/03/25 07:24:39;;;;;;;38.50;25.90;;;9.30;99.90;;;;;;4911628;28;20617;-63
2021/03/25 07:27:13;;;;;;;45.53;26.87;;;9.40;99.90;;;;;;4933589;28;20620;-62
2021/03/25 07:29:42;;;;;;;41.07;26.47;;;9.40;99.90;;;;;;4935187;28;20212;-61
2021/03/25 07:32:10;;;;;;;39.67;26.70;;;9.20;99.90;;;;;;4933290;28;21148;-62
2021/03/25 07:34:37;;;;;;;38.47;26.10;;;9.30;99.90;;;;;;4907836;28;20637;-65
2021/03/25 07:37:06;;;;;;;44.17;27.87;;;9.40;99.90;;;;;;4939211;28;21204;-62
2021/03/25 07:39:49;;;;;;;45.33;28.57;;;9.40;99.90;;;;;;4939649;28;20653;-61
2021/03/25 07:42:33;;;;;;;50.80;31.53;;;9.50;99.90;;;;;;4932183;28;20648;-63
2021/03/25 07:45:28;;;;;;;56.63;32.43;;;9.40;99.90;;;;;;4912576;28;21226;-61
2021/03/25 07:48:12;;;;;;;53.30;33.50;;;9.40;99.90;;;;;;4921410;28;20629;-62
2021/03/25 07:50:38;;;;;;;55.90;32.87;;;9.40;99.90;;;;;;4902552;28;21020;-63
2021/03/25 07:53:25;;;;;;;53.00;34.17;;;9.30;99.90;;;;;;4930015;28;20646;-63
2021/03/25 07:56:06;;;;;;;54.07;31.80;;;9.10;99.90;;;;;;4923223;28;20720;-62
2021/03/25 07:58:38;;;;;;;52.67;32.70;;;9.20;99.90;;;;;;4905787;28;21028;-63
2021/03/25 08:01:12;;;;;;;54.77;31.73;;;9.20;99.90;;;;;;4927450;28;20647;-63
2021/03/25 08:03:48;;;;;;;49.60;29.80;;;9.20;99.90;;;;;;4921959;28;20640;-63
2021/03/25 08:06:18;;;;;;;52.77;34.27;;;9.40;99.90;;;;;;4917218;28;20631;-62
2021/03/25 08:08:44;;;;;;;52.97;30.90;;;9.20;99.90;;;;;;4906198;28;22114;-63
2021/03/25 08:11:16;;;;;;;51.63;29.60;;;9.20;99.90;;;;;;4904278;28;20656;-62
2021/03/25 08:13:55;;;;;;;48.53;30.60;;;9.30;99.90;;;;;;4921217;28;21964;-62
2021/03/25 08:16:21;;;;;;;47.07;30.73;;;9.30;99.90;;;;;;4920022;28;21000;-62
2021/03/25 08:19:28;;;;;;;47.00;29.83;;;9.30;99.90;;;;;;4919878;28;20838;-62
2021/03/25 08:22:19;;;;;;;49.43;29.70;;;9.20;99.90;;;;;;4839336;29;21269;-62
2021/03/25 08:24:54;;;;;;;46.80;31.07;;;9.20;99.90;;;;;;4915974;28;20670;-63
2021/03/25 08:27:55;;;;;;;45.33;30.63;;;9.40;99.90;;;;;;4919467;28;20607;-63
2021/03/25 08:30:50;;;;;;;44.30;28.10;;;9.30;99.90;;;;;;4918897;28;22222;-61
2021/03/25 08:33:49;;;;;;;40.70;26.17;;;9.30;99.90;;;;;;4926945;28;20715;-62
2021/03/25 08:36:22;;;;;;;48.30;30.40;;;9.50;99.90;;;;;;4922515;28;20624;-62
2021/03/25 08:39:07;;;;;;;46.53;29.57;;;9.60;99.90;;;;;;4899026;28;20970;-62
2021/03/25 08:41:55;;;;;;;46.60;29.37;;;9.60;99.90;;;;;;4897613;28;20645;-62
2021/03/25 08:44:32;;;;;;;46.17;30.27;;;9.70;99.90;;;;;;4902352;28;20963;-64
2021/03/25 08:47:06;;;;;;;44.07;30.10;;;9.60;99.90;;;;;;4917987;28;20730;-63
2021/03/25 08:49:55;;;;;;;51.07;31.13;;;9.60;99.90;;;;;;4919241;28;20764;-63
2021/03/25 08:52:22;;;;;;;45.70;28.80;;;9.70;99.90;;;;;;4931255;28;20675;-62
2021/03/25 08:54:57;;;;;;;42.87;28.83;;;9.70;99.90;;;;;;4929424;28;20770;-62
2021/03/25 08:57:28;;;;;;;42.63;27.80;;;9.90;99.90;;;;;;4929097;28;20648;-63
2021/03/25 09:00:18;;;;;;;40.83;28.27;;;9.90;99.90;;;;;;4936987;28;20723;-62
2021/03/25 09:02:51;;;;;;;41.17;28.53;;;9.80;99.90;;;;;;4911078;28;20891;-63
2021/03/25 09:05:28;;;;;;;40.97;27.07;;;9.90;99.90;;;;;;4917598;28;21052;-62
2021/03/25 09:07:57;;;;;;;37.17;25.77;;;10.00;99.90;;;;;;4908150;28;20644;-63
2021/03/25 09:10:22;;;;;;;42.70;26.53;;;10.00;99.90;;;;;;4921993;28;20642;-63
2021/03/25 09:12:48;;;;;;;39.77;25.90;;;9.90;99.90;;;;;;4918661;28;20696;-63
2021/03/25 09:15:15;;;;;;;39.50;25.83;;;9.90;99.90;;;;;;4908966;28;20631;-62
2021/03/25 09:17:59;;;;;;;33.70;23.20;;;9.90;99.90;;;;;;4913346;28;21790;-62
2021/03/25 09:20:29;;;;;;;33.57;24.07;;;10.00;99.90;;;;;;4927252;28;21227;-63
2021/03/25 09:22:58;;;;;;;31.90;22.93;;;10.00;99.90;;;;;;4920226;28;20658;-62
2021/03/25 09:25:26;;;;;;;31.77;24.20;;;10.10;99.90;;;;;;4915445;28;21124;-61
2021/03/25 09:27:58;;;;;;;30.20;22.17;;;10.10;99.90;;;;;;4918295;28;20629;-62
2021/03/25 09:30:35;;;;;;;32.90;23.47;;;10.10;99.90;;;;;;4918602;28;20692;-62
2021/03/25 09:33:38;;;;;;;32.57;23.60;;;10.10;99.90;;;;;;4918448;28;21009;-63
2021/03/25 09:36:19;;;;;;;38.63;24.77;;;10.20;99.90;;;;;;4923697;28;20619;-62
2021/03/25 09:38:59;;;;;;;32.67;23.87;;;10.40;99.90;;;;;;4918261;28;20648;-61
2021/03/25 09:41:25;;;;;;;32.37;23.40;;;10.40;99.90;;;;;;4915466;28;22904;-63
2021/03/25 09:44:10;;;;;;;37.27;24.33;;;10.40;99.90;;;;;;4922537;28;20625;-62
2021/03/25 09:46:44;;;;;;;36.37;25.17;;;10.40;99.90;;;;;;4898970;28;20217;-63
2021/03/25 09:49:31;;;;;;;34.40;25.13;;;10.50;99.90;;;;;;4924626;28;20755;-63
2021/03/25 09:52:12;;;;;;;36.10;25.17;;;10.60;99.90;;;;;;4932210;28;20806;-62
2021/03/25 09:54:58;;;;;;;32.07;24.20;;;10.70;99.90;;;;;;4915491;28;21683;-62
2021/03/25 09:59:58;;;;;;;27.97;20.10;;;10.90;99.90;;;;;;4936316;28;21271;-63
2021/03/25 10:02:46;;;;;;;27.37;19.90;;;11.00;99.90;;;;;;4919409;28;20669;-62
2021/03/25 10:05:35;;;;;;;29.13;20.67;;;11.00;99.90;;;;;;4926837;28;21220;-62
2021/03/25 10:08:14;;;;;;;27.37;20.80;;;11.10;99.90;;;;;;4918137;28;20624;-62
2021/03/25 10:10:58;;;;;;;33.73;21.53;;;11.10;99.90;;;;;;4905486;28;20624;-61
2021/03/25 10:13:43;;;;;;;31.33;21.30;;;11.10;99.90;;;;;;4936595;28;20657;-63
2021/03/25 10:16:29;;;;;;;29.27;20.50;;;11.20;99.90;;;;;;4927999;28;22115;-63
2021/03/25 10:18:56;;;;;;;31.50;21.43;;;11.20;99.90;;;;;;4938925;28;20772;-62
2021/03/25 10:21:44;;;;;;;27.57;20.80;;;11.30;99.90;;;;;;4912980;28;21150;-62
2021/03/25 10:24:19;;;;;;;32.70;21.40;;;11.40;99.90;;;;;;4930541;28;22068;-63
2021/03/25 10:26:47;;;;;;;28.20;19.77;;;11.50;99.90;;;;;;4913525;28;20633;-62
2021/03/25 10:29:26;;;;;;;25.57;19.13;;;11.60;99.90;;;;;;4912077;28;20767;-62
2021/03/25 10:31:55;;;;;;;22.80;17.03;;;11.70;99.90;;;;;;4936232;28;20759;-62
2021/03/25 10:34:23;;;;;;;24.93;18.17;;;11.90;99.90;;;;;;4924900;28;21250;-63
2021/03/25 10:37:03;;;;;;;23.20;16.60;;;12.00;99.90;;;;;;4932111;28;20812;-61
2021/03/25 10:39:32;;;;;;;23.37;17.63;;;12.00;99.90;;;;;;4928518;28;20671;-65
2021/03/25 10:42:32;;;;;;;22.77;16.77;;;12.10;99.90;;;;;;4928246;28;21085;-63
2021/03/25 10:45:22;;;;;;;20.00;15.00;;;12.30;99.90;;;;;;4918780;28;20651;-62
2021/03/25 10:47:59;;;;;;;16.90;14.07;;;12.30;99.90;;;;;;4924698;28;20736;-62
2021/03/25 10:50:48;;;;;;;18.83;14.83;;;12.60;99.90;;;;;;4921630;28;20653;-62
2021/03/25 10:53:17;;;;;;;18.23;14.87;;;12.60;99.90;;;;;;4926955;28;20633;-67
2021/03/25 10:55:49;;;;;;;23.37;15.87;;;12.70;99.90;;;;;;4919254;28;21857;-63
2021/03/25 10:58:27;;;;;;;21.33;15.80;;;12.90;99.90;;;;;;4918863;28;22577;-72
2021/03/25 11:01:02;;;;;;;24.33;16.80;;;13.00;99.90;;;;;;4922889;28;20774;-63
2021/03/25 11:03:32;;;;;;;19.93;15.33;;;13.10;99.90;;;;;;4923195;28;20648;-63
2021/03/25 11:06:00;;;;;;;17.43;13.80;;;13.30;99.90;;;;;;4902637;28;21159;-64
2021/03/25 11:08:40;;;;;;;17.60;12.37;;;13.40;99.90;;;;;;4917797;28;20655;-63
2021/03/25 11:11:11;;;;;;;14.50;12.20;;;13.50;99.90;;;;;;4914503;28;20657;-63
2021/03/25 11:13:39;;;;;;;13.50;11.20;;;13.60;99.90;;;;;;4902440;28;20759;-63
2021/03/25 11:16:14;;;;;;;16.90;11.63;;;13.60;99.90;;;;;;4938910;28;20678;-63
2021/03/25 11:19:11;;;;;;;14.37;11.77;;;13.80;99.90;;;;;;4941245;28;20888;-63
2021/03/25 11:21:40;;;;;;;14.40;12.07;;;13.90;99.90;;;;;;4937878;28;20660;-72
2021/03/25 11:24:18;;;;;;;13.40;11.17;;;14.00;99.90;;;;;;4928857;28;21135;-65
2021/03/25 11:26:44;;;;;;;15.53;11.30;;;14.10;99.90;;;;;;4938286;28;21139;-64
2021/03/25 11:29:15;;;;;;;12.23;10.50;;;14.30;99.90;;;;;;4921668;28;20704;-62
2021/03/25 11:31:41;;;;;;;13.50;10.30;;;14.50;99.90;;;;;;4921972;28;20803;-62
2021/03/25 11:34:07;;;;;;;11.90;10.60;;;14.60;99.90;;;;;;4928550;28;20636;-62
2021/03/25 11:36:36;;;;;;;15.37;12.10;;;14.70;99.90;;;;;;4942698;28;20980;-63
2021/03/25 11:39:21;;;;;;;14.07;11.67;;;14.80;99.90;;;;;;4929532;28;20429;-63
2021/03/25 11:41:50;;;;;;;16.43;12.60;;;14.90;99.90;;;;;;4925628;28;20849;-63
2021/03/25 11:44:40;;;;;;;14.87;10.70;;;14.90;99.90;;;;;;4933812;28;20679;-62
2021/03/25 11:47:32;;;;;;;10.83;9.70;;;14.90;99.90;;;;;;4939653;28;20628;-63
2021/03/25 11:49:58;;;;;;;15.07;9.77;;;15.00;99.90;;;;;;4927833;28;20881;-63
2021/03/25 11:52:23;;;;;;;11.10;8.97;;;15.10;99.90;;;;;;4915323;28;23232;-62
2021/03/25 11:55:00;;;;;;;10.80;9.10;;;15.30;99.90;;;;;;4924535;28;20644;-63
2021/03/25 11:57:30;;;;;;;15.73;11.50;;;15.50;99.90;;;;;;4940024;28;20198;-61
2021/03/25 12:00:10;;;;;;;15.93;11.37;;;15.70;99.90;;;;;;4930231;28;20657;-62
2021/03/25 12:02:37;;;;;;;13.17;11.57;;;15.80;99.90;;;;;;4909825;28;20663;-62
2021/03/25 12:05:41;;;;;;;13.70;11.63;;;15.80;99.90;;;;;;4944504;28;20753;-65
2021/03/25 12:08:13;;;;;;;14.53;12.17;;;15.90;99.90;;;;;;4933558;28;21273;-62
2021/03/25 12:10:40;;;;;;;19.03;13.03;;;15.90;99.90;;;;;;4926061;28;20605;-63
2021/03/25 12:13:17;;;;;;;14.67;12.53;;;15.90;99.90;;;;;;4909482;28;21540;-63
2021/03/25 12:15:43;;;;;;;14.07;12.53;;;15.90;99.90;;;;;;4928518;28;20831;-64
2021/03/25 12:18:23;;;;;;;13.60;12.20;;;16.00;99.90;;;;;;4923625;28;20624;-62
2021/03/25 12:20:49;;;;;;;14.50;12.70;;;16.20;99.90;;;;;;4922434;28;21751;-62
2021/03/25 12:23:22;;;;;;;14.93;12.30;;;16.30;99.90;;;;;;4933459;28;20684;-63
2021/03/25 12:25:50;;;;;;;14.07;12.23;;;16.50;99.90;;;;;;4917093;28;20220;-63
2021/03/25 12:28:16;;;;;;;14.77;12.67;;;16.50;99.90;;;;;;4940152;28;20637;-63
2021/03/25 12:30:43;;;;;;;13.03;11.20;;;16.40;99.90;;;;;;4934061;28;21007;-62
2021/03/25 12:33:25;;;;;;;13.13;11.80;;;16.30;99.90;;;;;;4939407;28;21078;-62
2021/03/25 12:35:51;;;;;;;12.83;11.53;;;16.20;99.90;;;;;;4926014;28;20693;-62
2021/03/25 12:38:17;;;;;;;13.73;12.23;;;16.10;99.90;;;;;;4926215;28;20975;-63
2021/03/25 12:40:44;;;;;;;14.00;12.00;;;16.10;99.90;;;;;;4930023;28;20631;-62
2021/03/25 12:43:16;;;;;;;16.07;11.80;;;16.10;99.90;;;;;;4937120;28;20982;-62
2021/03/25 12:45:44;;;;;;;13.83;11.40;;;16.40;99.90;;;;;;4917255;28;21215;-63
2021/03/25 12:48:10;;;;;;;12.33;10.70;;;16.70;99.90;;;;;;4909857;28;22154;-62
2021/03/25 12:50:36;;;;;;;13.87;11.17;;;17.00;99.90;;;;;;4928912;28;20605;-63
2021/03/25 12:53:03;;;;;;;11.40;10.00;;;17.30;99.90;;;;;;4925959;28;21365;-63
2021/03/25 12:55:31;;;;;;;12.83;10.60;;;17.80;99.90;;;;;;4919644;28;20198;-63
2021/03/25 12:58:00;;;;;;;11.90;10.70;;;18.50;99.90;;;;;;4900369;28;20625;-63
2021/03/25 13:00:36;;;;;;;11.07;9.97;;;19.30;99.90;;;;;;4928721;28;21354;-62
2021/03/25 13:03:03;;;;;;;10.73;9.77;;;20.10;99.90;;;;;;4933412;28;20699;-63
2021/03/25 13:05:29;;;;;;;11.13;10.03;;;21.10;99.90;;;;;;4923476;28;20664;-63
2021/03/25 13:07:54;;;;;;;10.67;9.70;;;21.90;99.90;;;;;;4921887;28;21807;-60
2021/03/25 13:10:22;;;;;;;10.50;9.50;;;22.50;99.90;;;;;;4921625;28;20221;-62
2021/03/25 13:12:49;;;;;;;9.70;8.80;;;23.20;99.20;;;;;;4931975;28;20233;-61
2021/03/25 13:15:16;;;;;;;9.77;8.87;;;23.30;96.60;;;;;;4912087;28;20672;-62
2021/03/25 13:17:42;;;;;;;10.37;8.83;;;23.00;93.70;;;;;;4945231;28;20679;-62
2021/03/25 13:20:09;;;;;;;8.80;8.00;;;22.30;94.20;;;;;;4949231;28;20653;-63
2021/03/25 13:22:36;;;;;;;11.20;10.10;;;21.60;95.30;;;;;;4914557;28;20226;-63
2021/03/25 13:25:04;;;;;;;10.20;9.20;;;21.50;95.30;;;;;;4941000;28;20805;-64
2021/03/25 13:27:29;;;;;;;9.73;8.57;;;21.60;95.20;;;;;;4912105;28;20722;-62
2021/03/25 13:29:55;;;;;;;9.37;8.47;;;22.10;95.20;;;;;;4943765;28;20656;-69
2021/03/25 13:32:21;;;;;;;10.87;9.87;;;22.60;94.10;;;;;;4941959;28;20316;-61
2021/03/25 13:34:46;;;;;;;11.90;9.57;;;23.30;93.70;;;;;;4951482;28;20917;-61
2021/03/25 13:37:12;;;;;;;10.27;9.20;;;23.60;91.80;;;;;;4956895;28;20280;-61
2021/03/25 13:39:38;;;;;;;9.03;8.23;;;23.60;91.50;;;;;;4956248;28;20245;-62